sensor_id;sensor_type;location;lat;lon;timestamp;P1;durP1;ratioP1;P2;durP2;ratioP2
2868;SDS011;1442;47.448;8.582;2022-10-31T00:01:46;23.15;;;9.35;;
2868;SDS011;1442;47.448;8.582;2022-10-31T00:04:13;17.83;;;8.68;;
2868;SDS011;1442;47.448;8.582;2022-10-31T00:06:40;20.08;;;9.15;;
2868;SDS011;1442;47.448;8.582;2022-10-31T00:09:09;23.27;;;8.45;;
2868;SDS011;1442;47.448;8.582;2022-10-31T00:11:37;23.40;;;9.20;;
2868;SDS011;1442;47.448;8.582;2022-10-31T00:14:04;17.27;;;9.07;;
2868;SDS011;1442;47.448;8.582;2022-10-31T00:16:31;21.00;;;8.85;;
2868;SDS011;1442;47.448;8.582;2022-10-31T00:18:59;15.93;;;9.18;;
2868;SDS011;1442;47.448;8.582;2022-10-31T00:21:26;20.63;;;9.63;;
2868;SDS011;1442;47.448;8.582;2022-10-31T00:23:53;23.07;;;9.10;;
2868;SDS011;1442;47.448;8.582;2022-10-31T00:26:22;19.45;;;9.90;;
2868;SDS011;1442;47.448;8.582;2022-10-31T00:28:49;18.85;;;9.70;;
2868;SDS011;1442;47.448;8.582;2022-10-31T00:31:16;21.85;;;10.05;;
2868;SDS011;1442;47.448;8.582;2022-10-31T00:33:43;16.77;;;9.07;;
2868;SDS011;1442;47.448;8.582;2022-10-31T00:36:11;18.05;;;8.70;;
2868;SDS011;1442;47.448;8.582;2022-10-31T00:38:38;20.05;;;9.25;;
2868;SDS011;1442;47.448;8.582;2022-10-31T00:41:05;21.30;;;9.40;;
2868;SDS011;1442;47.448;8.582;2022-10-31T00:43:34;17.50;;;8.60;;
2868;SDS011;1442;47.448;8.582;2022-10-31T00:46:01;19.20;;;8.80;;
2868;SDS011;1442;47.448;8.582;2022-10-31T00:48:28;18.52;;;8.48;;
2868;SDS011;1442;47.448;8.582;2022-10-31T00:50:55;19.42;;;8.05;;
2868;SDS011;1442;47.448;8.582;2022-10-31T00:53:23;19.13;;;7.78;;
2868;SDS011;1442;47.448;8.582;2022-10-31T00:55:50;15.67;;;8.70;;
2868;SDS011;1442;47.448;8.582;2022-10-31T00:58:17;19.87;;;8.27;;
2868;SDS011;1442;47.448;8.582;2022-10-31T01:00:46;14.73;;;8.20;;
2868;SDS011;1442;47.448;8.582;2022-10-31T01:03:19;19.83;;;8.75;;
2868;SDS011;1442;47.448;8.582;2022-10-31T01:05:54;18.70;;;8.18;;
2868;SDS011;1442;47.448;8.582;2022-10-31T01:08:21;14.73;;;7.77;;
2868;SDS011;1442;47.448;8.582;2022-10-31T01:10:57;18.70;;;8.23;;
2868;SDS011;1442;47.448;8.582;2022-10-31T01:13:24;15.05;;;8.25;;
2868;SDS011;1442;47.448;8.582;2022-10-31T01:15:54;17.05;;;8.23;;
2868;SDS011;1442;47.448;8.582;2022-10-31T01:18:21;21.37;;;8.37;;
2868;SDS011;1442;47.448;8.582;2022-10-31T01:20:56;18.57;;;7.53;;
2868;SDS011;1442;47.448;8.582;2022-10-31T01:23:23;17.45;;;7.90;;
2868;SDS011;1442;47.448;8.582;2022-10-31T01:25:58;19.42;;;8.15;;
2868;SDS011;1442;47.448;8.582;2022-10-31T01:28:25;15.32;;;7.90;;
2868;SDS011;1442;47.448;8.582;2022-10-31T01:30:52;19.48;;;8.40;;
2868;SDS011;1442;47.448;8.582;2022-10-31T01:33:20;15.75;;;7.90;;
2868;SDS011;1442;47.448;8.582;2022-10-31T01:35:47;16.67;;;8.43;;
2868;SDS011;1442;47.448;8.582;2022-10-31T01:38:14;18.30;;;8.20;;
2868;SDS011;1442;47.448;8.582;2022-10-31T01:40:41;17.10;;;7.93;;
2868;SDS011;1442;47.448;8.582;2022-10-31T01:43:10;19.33;;;9.23;;
2868;SDS011;1442;47.448;8.582;2022-10-31T01:45:38;17.95;;;8.48;;
2868;SDS011;1442;47.448;8.582;2022-10-31T01:48:06;17.15;;;8.60;;
2868;SDS011;1442;47.448;8.582;2022-10-31T01:50:40;16.65;;;8.65;;
2868;SDS011;1442;47.448;8.582;2022-10-31T01:53:08;20.05;;;8.40;;
2868;SDS011;1442;47.448;8.582;2022-10-31T01:55:37;19.27;;;8.43;;
2868;SDS011;1442;47.448;8.582;2022-10-31T01:58:06;18.08;;;9.60;;
2868;SDS011;1442;47.448;8.582;2022-10-31T02:00:34;20.00;;;9.07;;
2868;SDS011;1442;47.448;8.582;2022-10-31T02:03:01;18.63;;;8.85;;
2868;SDS011;1442;47.448;8.582;2022-10-31T02:05:28;19.63;;;9.03;;
2868;SDS011;1442;47.448;8.582;2022-10-31T02:07:58;13.40;;;8.68;;
2868;SDS011;1442;47.448;8.582;2022-10-31T02:10:26;16.05;;;8.23;;
2868;SDS011;1442;47.448;8.582;2022-10-31T02:12:54;16.73;;;7.50;;
2868;SDS011;1442;47.448;8.582;2022-10-31T02:15:23;16.85;;;8.40;;
2868;SDS011;1442;47.448;8.582;2022-10-31T02:17:50;17.00;;;8.07;;
2868;SDS011;1442;47.448;8.582;2022-10-31T02:20:18;15.73;;;8.23;;
2868;SDS011;1442;47.448;8.582;2022-10-31T02:22:54;17.27;;;8.70;;
2868;SDS011;1442;47.448;8.582;2022-10-31T02:25:32;20.43;;;8.60;;
2868;SDS011;1442;47.448;8.582;2022-10-31T02:28:13;22.77;;;8.13;;
2868;SDS011;1442;47.448;8.582;2022-10-31T02:30:57;16.50;;;7.93;;
2868;SDS011;1442;47.448;8.582;2022-10-31T02:33:28;16.20;;;8.02;;
2868;SDS011;1442;47.448;8.582;2022-10-31T02:35:59;21.10;;;8.13;;
2868;SDS011;1442;47.448;8.582;2022-10-31T02:38:32;17.67;;;8.65;;
2868;SDS011;1442;47.448;8.582;2022-10-31T02:41:03;14.68;;;8.00;;
2868;SDS011;1442;47.448;8.582;2022-10-31T02:43:34;14.80;;;7.55;;
2868;SDS011;1442;47.448;8.582;2022-10-31T02:46:04;17.30;;;8.57;;
2868;SDS011;1442;47.448;8.582;2022-10-31T02:48:34;17.30;;;7.75;;
2868;SDS011;1442;47.448;8.582;2022-10-31T02:51:04;14.18;;;7.78;;
2868;SDS011;1442;47.448;8.582;2022-10-31T02:53:32;22.67;;;8.02;;
2868;SDS011;1442;47.448;8.582;2022-10-31T02:56:00;18.77;;;8.30;;
2868;SDS011;1442;47.448;8.582;2022-10-31T02:58:29;17.15;;;8.23;;
2868;SDS011;1442;47.448;8.582;2022-10-31T03:01:14;15.90;;;7.38;;
2868;SDS011;1442;47.448;8.582;2022-10-31T03:03:47;14.27;;;7.13;;
2868;SDS011;1442;47.448;8.582;2022-10-31T03:06:20;19.48;;;7.65;;
2868;SDS011;1442;47.448;8.582;2022-10-31T03:08:54;12.57;;;7.10;;
2868;SDS011;1442;47.448;8.582;2022-10-31T03:11:23;14.00;;;7.55;;
2868;SDS011;1442;47.448;8.582;2022-10-31T03:13:51;18.25;;;7.50;;
2868;SDS011;1442;47.448;8.582;2022-10-31T03:16:23;17.73;;;7.90;;
2868;SDS011;1442;47.448;8.582;2022-10-31T03:18:53;18.15;;;7.43;;
2868;SDS011;1442;47.448;8.582;2022-10-31T03:21:23;15.65;;;7.05;;
2868;SDS011;1442;47.448;8.582;2022-10-31T03:23:53;13.05;;;7.00;;
2868;SDS011;1442;47.448;8.582;2022-10-31T03:26:20;16.67;;;6.93;;
2868;SDS011;1442;47.448;8.582;2022-10-31T03:28:49;17.73;;;7.25;;
2868;SDS011;1442;47.448;8.582;2022-10-31T03:31:18;12.40;;;7.30;;
2868;SDS011;1442;47.448;8.582;2022-10-31T03:33:48;13.68;;;7.40;;
2868;SDS011;1442;47.448;8.582;2022-10-31T03:36:16;17.45;;;8.32;;
2868;SDS011;1442;47.448;8.582;2022-10-31T03:38:44;13.27;;;8.15;;
2868;SDS011;1442;47.448;8.582;2022-10-31T03:41:13;18.97;;;8.60;;
2868;SDS011;1442;47.448;8.582;2022-10-31T03:43:42;23.25;;;9.90;;
2868;SDS011;1442;47.448;8.582;2022-10-31T03:46:10;22.85;;;10.68;;
2868;SDS011;1442;47.448;8.582;2022-10-31T03:48:37;25.13;;;11.60;;
2868;SDS011;1442;47.448;8.582;2022-10-31T03:51:06;24.52;;;9.48;;
2868;SDS011;1442;47.448;8.582;2022-10-31T03:53:36;27.08;;;9.90;;
2868;SDS011;1442;47.448;8.582;2022-10-31T03:56:07;29.27;;;9.95;;
2868;SDS011;1442;47.448;8.582;2022-10-31T03:58:36;23.65;;;10.50;;
2868;SDS011;1442;47.448;8.582;2022-10-31T04:01:05;36.55;;;11.15;;
2868;SDS011;1442;47.448;8.582;2022-10-31T04:03:34;29.10;;;12.52;;
2868;SDS011;1442;47.448;8.582;2022-10-31T04:06:03;50.78;;;13.55;;
2868;SDS011;1442;47.448;8.582;2022-10-31T04:08:33;56.22;;;15.63;;
2868;SDS011;1442;47.448;8.582;2022-10-31T04:11:03;35.97;;;14.65;;
2868;SDS011;1442;47.448;8.582;2022-10-31T04:13:31;39.10;;;16.85;;
2868;SDS011;1442;47.448;8.582;2022-10-31T04:15:59;57.90;;;15.88;;
2868;SDS011;1442;47.448;8.582;2022-10-31T04:18:26;50.40;;;16.48;;
2868;SDS011;1442;47.448;8.582;2022-10-31T04:20:59;38.45;;;15.95;;
2868;SDS011;1442;47.448;8.582;2022-10-31T04:23:26;50.83;;;15.10;;
2868;SDS011;1442;47.448;8.582;2022-10-31T04:25:55;50.08;;;15.95;;
2868;SDS011;1442;47.448;8.582;2022-10-31T04:28:22;59.70;;;16.27;;
2868;SDS011;1442;47.448;8.582;2022-10-31T04:30:49;34.20;;;15.43;;
2868;SDS011;1442;47.448;8.582;2022-10-31T04:38:10;30.02;;;13.50;;
2868;SDS011;1442;47.448;8.582;2022-10-31T04:40:37;43.45;;;15.25;;
2868;SDS011;1442;47.448;8.582;2022-10-31T04:43:06;29.30;;;15.38;;
2868;SDS011;1442;47.448;8.582;2022-10-31T05:22:18;32.78;;;11.68;;
2868;SDS011;1442;47.448;8.582;2022-10-31T05:44:21;29.05;;;12.13;;
2868;SDS011;1442;47.448;8.582;2022-10-31T06:26:01;31.42;;;19.52;;
2868;SDS011;1442;47.448;8.582;2022-10-31T06:28:28;37.83;;;19.58;;
2868;SDS011;1442;47.448;8.582;2022-10-31T06:30:55;34.30;;;20.30;;
2868;SDS011;1442;47.448;8.582;2022-10-31T06:45:39;39.28;;;16.55;;
2868;SDS011;1442;47.448;8.582;2022-10-31T06:48:06;36.75;;;18.50;;
2868;SDS011;1442;47.448;8.582;2022-10-31T06:50:33;87.95;;;20.65;;
2868;SDS011;1442;47.448;8.582;2022-10-31T06:53:00;37.17;;;20.35;;
